map of AOI home
AOI - Airport
Location
City:  Ancona, Marche, Italy
Name:Falconara
ICAO:LIPY
IATA:AOI

Details
Type:Airport (Aerodrome, Airfield)
Use:Public/Civil
Latitude:4336'59"N (43.616342)
Longitude:1321'44"E (13.362319)
Datum:WGS 1984
Elevation:49 ft (15 m)
Variation:3.24E (WMM2015 magnetic declination)
0.11 annual change
Runways:1
Longest:9718 × 148 ft (2962 × 45 m), paved

Time
Time Zone:UTC+1 (DST+2)
Local Time:

Weather
METAR:LIPY 221250Z 04010KT 020V080 CAVOK 30/16 Q1016
TAF:LIPY 221100Z 2212/2312 06010KT CAVOK
BECMG 2216/2218 VRB05KT
BECMG 2308/2310 06010KT

Related Locations
Nearby:
Farthest:CHT: 11949 mi / 19230 km
Waitangi [Tuuta], CIT, NZ

Find:

   beyond  
but within

Other Information
Maps:
NOTAMs:
Links:
Sources:

  
flag of Italy
flag of Marche
  

Sectional Chart

Flight Planning
at skyvector.com

Satellite Image

Google Maps Satellite view

 

Copyright © 2004-2017 Karl L. Swartz. All rights reserved.
The Great Circle Mapper name and logo are trademarks of the Great Circle Mapper.
All other trademarks mentioned herein belong to their respective owners.
Please see credits for attibutions and further copyright information.

  Follow gcmap on Facebook Follow gcmap on Twitter Follow gcmap on Google+ GCmap on LinkedIn

hCard Microformat

Geo Microformat